createdAt,value
2022-09-14T00:01:21.331Z,4.47
2022-09-14T00:03:45.227Z,4.50
2022-09-14T00:06:14.074Z,4.55
2022-09-14T00:08:40.924Z,4.65
2022-09-14T00:11:11.826Z,5.13
2022-09-14T00:13:40.914Z,5.07
2022-09-14T00:16:12.036Z,5.10
2022-09-14T00:18:38.571Z,5.05
2022-09-14T00:21:07.694Z,5.72
2022-09-14T00:23:36.052Z,5.57
2022-09-14T00:26:08.454Z,5.38
2022-09-14T00:28:47.903Z,5.25
2022-09-14T00:31:15.674Z,5.35
2022-09-14T00:33:43.577Z,4.90
2022-09-14T00:36:12.982Z,4.97
2022-09-14T00:38:40.264Z,5.50
2022-09-14T00:41:11.267Z,5.28
2022-09-14T00:43:58.875Z,5.38
2022-09-14T00:46:27.766Z,4.78
2022-09-14T00:48:56.098Z,5.30
2022-09-14T00:51:22.824Z,5.68
2022-09-14T00:53:49.935Z,5.00
2022-09-14T00:56:16.623Z,5.10
2022-09-14T00:58:45.862Z,5.35
2022-09-14T01:01:12.627Z,5.32
2022-09-14T01:03:39.467Z,4.90
2022-09-14T01:06:27.302Z,5.38
2022-09-14T01:09:12.542Z,5.70
2022-09-14T01:12:12.017Z,5.43
2022-09-14T01:14:49.783Z,5.28
2022-09-14T01:17:41.748Z,5.03
2022-09-14T01:20:11.190Z,5.30
2022-09-14T01:23:13.354Z,5.43
2022-09-14T01:25:55.632Z,5.40
2022-09-14T01:28:32.469Z,5.35
2022-09-14T01:31:03.056Z,5.13
2022-09-14T01:33:35.210Z,5.40
2022-09-14T01:36:06.469Z,5.20
2022-09-14T01:38:40.804Z,5.93
2022-09-14T01:41:11.555Z,5.70
2022-09-14T01:43:54.851Z,5.80
2022-09-14T01:46:26.169Z,5.57
2022-09-14T01:49:05.679Z,5.55
2022-09-14T01:51:42.466Z,5.60
2022-09-14T01:54:18.360Z,5.72
2022-09-14T01:56:51.745Z,5.43
2022-09-14T02:01:57.222Z,5.05
2022-09-14T02:04:38.745Z,5.50
2022-09-14T02:07:05.284Z,5.50
2022-09-14T02:09:31.858Z,5.30
2022-09-14T02:12:00.751Z,5.70
2022-09-14T02:14:27.951Z,5.70
2022-09-14T02:16:57.558Z,5.03
2022-09-14T02:19:26.713Z,5.50
2022-09-14T02:21:53.626Z,5.20
2022-09-14T02:24:20.686Z,5.43
2022-09-14T02:26:51.326Z,5.40
2022-09-14T02:29:18.151Z,5.70
2022-09-14T02:32:04.728Z,5.75
2022-09-14T02:34:39.088Z,5.70
2022-09-14T02:37:27.872Z,5.43
2022-09-14T02:40:05.394Z,5.45
2022-09-14T02:42:39.108Z,5.50
2022-09-14T02:45:19.797Z,5.57
2022-09-14T02:48:02.397Z,5.18
2022-09-14T02:50:36.102Z,5.60
2022-09-14T02:53:27.388Z,5.70
2022-09-14T02:56:03.467Z,5.65
2022-09-14T02:58:42.083Z,5.95
2022-09-14T03:01:11.487Z,5.38
2022-09-14T03:03:38.679Z,5.50
2022-09-14T03:06:05.530Z,5.43
2022-09-14T03:08:32.865Z,5.40
2022-09-14T03:10:59.505Z,5.25
2022-09-14T03:13:25.983Z,5.50
2022-09-14T03:15:52.777Z,4.95
2022-09-14T03:18:19.375Z,5.40
2022-09-14T03:20:45.936Z,5.25
2022-09-14T03:23:13.390Z,5.07
2022-09-14T03:25:43.992Z,4.57
2022-09-14T03:28:12.439Z,4.60
2022-09-14T03:30:39.257Z,4.95
2022-09-14T03:33:05.837Z,4.90
2022-09-14T03:35:32.690Z,5.10
2022-09-14T03:37:59.848Z,4.55
2022-09-14T03:40:27.425Z,4.85
2022-09-14T03:42:54.578Z,4.90
2022-09-14T03:45:21.865Z,4.97
2022-09-14T03:47:48.918Z,5.13
2022-09-14T03:50:16.441Z,5.15
2022-09-14T03:52:43.053Z,5.00
2022-09-14T03:55:10.778Z,4.72
2022-09-14T03:57:37.578Z,4.55
2022-09-14T04:00:05.821Z,4.30
2022-09-14T04:05:04.660Z,4.30
2022-09-14T04:07:31.242Z,4.00
2022-09-14T04:09:58.344Z,4.10
2022-09-14T04:12:25.020Z,4.43
2022-09-14T04:14:51.499Z,4.55
2022-09-14T04:17:18.107Z,4.30
2022-09-14T04:19:44.747Z,4.20
2022-09-14T04:22:11.345Z,4.20
2022-09-14T04:24:37.928Z,4.28
2022-09-14T04:27:04.455Z,4.05
2022-09-14T04:29:30.939Z,3.85
2022-09-14T04:31:58.007Z,4.10
2022-09-14T04:34:25.033Z,4.38
2022-09-14T04:36:54.100Z,4.40
2022-09-14T04:39:20.818Z,4.45
2022-09-14T04:41:47.355Z,4.43
2022-09-14T04:44:14.361Z,4.00
2022-09-14T04:46:46.123Z,4.32
2022-09-14T04:49:14.464Z,4.13
2022-09-14T04:51:41.060Z,4.38
2022-09-14T04:54:07.649Z,4.00
2022-09-14T04:56:35.970Z,3.90
2022-09-14T04:59:04.393Z,4.13
2022-09-14T05:01:37.542Z,4.35
2022-09-14T05:04:05.445Z,4.70
2022-09-14T05:06:34.175Z,5.28
2022-09-14T05:09:02.002Z,4.72
2022-09-14T05:11:31.866Z,4.18
2022-09-14T05:13:59.496Z,4.15
2022-09-14T05:16:29.126Z,4.00
2022-09-14T05:18:58.010Z,4.00
2022-09-14T05:21:24.934Z,4.20
2022-09-14T05:23:59.785Z,4.22
2022-09-14T05:26:28.128Z,4.40
2022-09-14T05:28:56.812Z,4.30
2022-09-14T05:31:24.941Z,4.25
2022-09-14T05:33:52.318Z,4.05
2022-09-14T05:36:19.486Z,3.92
2022-09-14T05:38:46.269Z,4.03
2022-09-14T05:41:14.093Z,4.38
2022-09-14T05:43:41.429Z,4.10
2022-09-14T05:46:11.208Z,4.13
2022-09-14T05:48:39.355Z,3.97
2022-09-14T05:51:11.597Z,4.05
2022-09-14T05:53:38.150Z,5.15
2022-09-14T05:56:07.899Z,4.82
2022-09-14T05:58:35.525Z,4.35
2022-09-14T06:01:09.362Z,4.38
2022-09-14T06:03:36.354Z,4.40
2022-09-14T06:06:03.983Z,4.43
2022-09-14T06:08:30.489Z,4.45
2022-09-14T06:10:57.206Z,4.30
2022-09-14T06:13:23.807Z,4.47
2022-09-14T06:15:50.252Z,3.92
2022-09-14T06:18:16.696Z,3.95
2022-09-14T06:20:51.043Z,3.90
2022-09-14T06:23:18.430Z,3.60
2022-09-14T06:25:44.923Z,3.50
2022-09-14T06:28:11.403Z,3.60
2022-09-14T06:30:37.867Z,3.80
2022-09-14T06:33:05.027Z,3.63
2022-09-14T06:35:31.545Z,3.60
2022-09-14T06:37:58.022Z,3.45
2022-09-14T06:40:24.545Z,3.58
2022-09-14T06:42:51.054Z,3.20
2022-09-14T06:45:17.561Z,3.33
2022-09-14T06:47:44.157Z,3.20
2022-09-14T06:50:10.658Z,3.33
2022-09-14T06:52:37.308Z,3.45
2022-09-14T06:55:04.061Z,3.70
2022-09-14T06:57:30.524Z,3.47
2022-09-14T06:59:57.466Z,3.00
2022-09-14T07:02:24.018Z,3.10
2022-09-14T07:04:50.517Z,3.20
2022-09-14T07:07:16.952Z,3.10
2022-09-14T07:09:43.450Z,3.20
2022-09-14T07:12:11.618Z,3.00
2022-09-14T07:14:38.506Z,3.13
2022-09-14T07:17:05.376Z,2.90
2022-09-14T07:19:31.850Z,3.00
2022-09-14T07:21:58.566Z,2.90
2022-09-14T07:24:25.078Z,2.80
2022-09-14T07:26:51.575Z,2.70
2022-09-14T07:29:20.012Z,2.80
2022-09-14T07:31:52.371Z,2.88
2022-09-14T07:34:19.467Z,3.03
2022-09-14T07:36:46.433Z,3.00
2022-09-14T07:39:15.233Z,2.80
2022-09-14T07:41:43.355Z,2.60
2022-09-14T07:44:14.340Z,3.08
2022-09-14T07:46:42.335Z,2.80
2022-09-14T07:49:10.199Z,2.70
2022-09-14T07:51:37.884Z,2.70
2022-09-14T07:54:06.075Z,2.90
2022-09-14T07:56:34.093Z,2.75
2022-09-14T07:59:23.877Z,2.70
2022-09-14T08:01:47.375Z,2.47
2022-09-14T08:04:13.889Z,2.58
2022-09-14T08:06:40.790Z,2.50
2022-09-14T08:09:11.069Z,2.83
2022-09-14T08:11:38.400Z,2.55
2022-09-14T08:14:10.107Z,2.35
2022-09-14T08:16:38.881Z,2.53
2022-09-14T08:19:08.139Z,2.55
2022-09-14T08:21:35.712Z,2.63
2022-09-14T08:24:04.203Z,2.65
2022-09-14T08:26:31.358Z,2.55
2022-09-14T08:29:00.498Z,2.35
2022-09-14T08:31:28.307Z,2.40
2022-09-14T08:33:58.034Z,2.20
2022-09-14T08:36:27.021Z,2.30
2022-09-14T08:38:53.474Z,2.30
2022-09-14T08:41:33.026Z,2.58
2022-09-14T08:44:13.440Z,2.55
2022-09-14T08:46:47.293Z,2.50
2022-09-14T08:49:24.287Z,2.00
2022-09-14T08:51:51.893Z,2.35
2022-09-14T08:54:18.833Z,2.47
2022-09-14T08:56:49.050Z,2.30
2022-09-14T08:59:56.952Z,2.25
2022-09-14T09:02:48.291Z,2.45
2022-09-14T09:05:40.259Z,2.55
2022-09-14T09:08:39.268Z,2.47
2022-09-14T09:11:10.022Z,2.60
2022-09-14T09:13:40.130Z,2.35
2022-09-14T09:16:10.093Z,2.50
2022-09-14T09:18:46.843Z,2.70
2022-09-14T09:21:20.095Z,2.50
2022-09-14T09:26:25.341Z,2.67
2022-09-14T09:28:55.022Z,2.30
2022-09-14T09:31:29.815Z,2.30
2022-09-14T09:34:17.431Z,2.30
2022-09-14T09:36:48.411Z,2.75
2022-09-14T09:39:16.079Z,2.58
2022-09-14T09:41:48.473Z,2.20
2022-09-14T09:44:15.524Z,2.13
2022-09-14T09:46:50.316Z,2.33
2022-09-14T09:49:21.828Z,2.30
2022-09-14T09:51:49.815Z,1.80
2022-09-14T09:54:16.505Z,1.92
2022-09-14T09:57:00.561Z,1.90
2022-09-14T09:59:31.795Z,2.05
2022-09-14T10:02:20.017Z,2.10
2022-09-14T10:04:56.793Z,1.90
2022-09-14T10:07:23.619Z,2.17
2022-09-14T10:10:08.346Z,2.00
2022-09-14T10:12:37.477Z,2.15
2022-09-14T10:15:11.603Z,1.58
2022-09-14T10:17:38.109Z,1.80
2022-09-14T10:20:05.809Z,1.90
2022-09-14T10:22:34.432Z,2.15
2022-09-14T10:25:13.282Z,2.13
2022-09-14T10:27:39.797Z,2.47
2022-09-14T10:30:13.897Z,2.70
2022-09-14T10:32:44.736Z,2.33
2022-09-14T10:35:13.892Z,2.28
2022-09-14T10:38:24.653Z,2.30
2022-09-14T10:41:10.461Z,2.35
2022-09-14T10:43:55.592Z,2.50
2022-09-14T10:46:34.545Z,2.47
2022-09-14T10:49:22.648Z,2.22
2022-09-14T10:52:03.169Z,2.40
2022-09-14T10:54:58.132Z,2.38
2022-09-14T10:57:30.995Z,2.63
2022-09-14T11:00:07.235Z,2.42
2022-09-14T11:03:00.939Z,2.63
2022-09-14T11:05:40.154Z,2.70
2022-09-14T11:08:22.025Z,2.40
2022-09-14T11:11:16.930Z,2.33
2022-09-14T11:14:08.072Z,2.45
2022-09-14T11:16:59.368Z,2.40
2022-09-14T11:19:44.226Z,2.50
2022-09-14T11:22:34.972Z,2.47
2022-09-14T11:25:12.323Z,2.35
2022-09-14T11:27:47.901Z,2.40
2022-09-14T11:30:18.563Z,2.28
2022-09-14T11:32:59.630Z,2.40
2022-09-14T11:35:38.845Z,2.20
2022-09-14T11:38:18.240Z,2.38
2022-09-14T11:40:52.194Z,2.55
2022-09-14T11:43:27.818Z,2.25
2022-09-14T11:46:13.496Z,2.78
2022-09-14T11:49:05.341Z,2.50
2022-09-14T11:51:39.153Z,2.40
2022-09-14T11:54:18.378Z,2.53
2022-09-14T11:56:49.434Z,2.60
2022-09-14T11:59:50.369Z,2.40
2022-09-14T12:02:22.664Z,2.70
2022-09-14T12:05:07.419Z,2.75
2022-09-14T12:07:39.899Z,2.72
2022-09-14T12:10:18.110Z,2.40
2022-09-14T12:12:48.240Z,2.50
2022-09-14T12:15:31.568Z,2.70
2022-09-14T12:20:30.394Z,2.60
2022-09-14T12:23:24.926Z,2.45
2022-09-14T12:26:06.709Z,2.50
2022-09-14T12:28:36.226Z,2.67
2022-09-14T12:31:02.992Z,2.63
2022-09-14T12:33:32.440Z,2.53
2022-09-14T12:36:11.061Z,2.60
2022-09-14T12:38:39.412Z,2.40
2022-09-14T12:41:15.088Z,2.60
2022-09-14T12:43:41.501Z,2.40
2022-09-14T12:46:08.031Z,2.45
2022-09-14T12:48:50.807Z,2.50
2022-09-14T12:51:29.668Z,2.85
2022-09-14T12:54:08.466Z,2.40
2022-09-14T12:56:42.396Z,2.30
2022-09-14T12:59:32.347Z,2.83
2022-09-14T13:02:36.603Z,2.53
2022-09-14T13:05:08.163Z,2.50
2022-09-14T13:07:36.624Z,2.58
2022-09-14T13:10:06.490Z,2.60
2022-09-14T13:12:44.904Z,2.65
2022-09-14T13:15:18.938Z,2.80
2022-09-14T13:18:03.085Z,2.83
2022-09-14T13:20:31.599Z,2.85
2022-09-14T13:22:58.483Z,2.50
2022-09-14T13:25:28.584Z,2.85
2022-09-14T13:27:56.176Z,2.78
2022-09-14T13:30:25.640Z,2.67
2022-09-14T13:32:55.513Z,2.83
2022-09-14T13:35:43.567Z,2.65
2022-09-14T13:38:16.554Z,2.92
2022-09-14T13:40:43.208Z,2.53
2022-09-14T13:43:10.200Z,2.90
2022-09-14T13:45:37.133Z,2.72
2022-09-14T13:48:05.751Z,2.80
2022-09-14T13:50:33.913Z,2.55
2022-09-14T13:53:03.296Z,2.85
2022-09-14T13:55:33.240Z,3.15
2022-09-14T13:58:13.473Z,2.60
2022-09-14T14:00:59.657Z,2.90
2022-09-14T14:03:32.018Z,2.80
2022-09-14T14:05:59.882Z,2.83
2022-09-14T14:08:35.092Z,1.80
2022-09-14T14:11:07.634Z,1.20
2022-09-14T14:13:37.258Z,1.17
2022-09-14T14:16:21.484Z,1.15
2022-09-14T14:18:56.396Z,1.27
2022-09-14T14:21:23.044Z,1.20
2022-09-14T14:24:12.150Z,1.10
2022-09-14T14:26:38.597Z,1.30
2022-09-14T14:29:12.403Z,1.27
2022-09-14T14:31:38.912Z,1.27
2022-09-14T14:34:17.199Z,1.45
2022-09-14T14:36:43.868Z,2.22
2022-09-14T14:39:10.546Z,2.30
2022-09-14T14:41:37.562Z,2.10
2022-09-14T14:44:04.159Z,2.30
2022-09-14T14:46:30.758Z,2.65
2022-09-14T14:48:57.309Z,2.13
2022-09-14T14:51:23.768Z,2.60
2022-09-14T14:53:50.288Z,2.42
2022-09-14T14:56:16.762Z,2.80
2022-09-14T14:58:45.595Z,2.53
2022-09-14T15:01:12.877Z,2.63
2022-09-14T15:03:39.625Z,2.72
2022-09-14T15:06:15.666Z,3.03
2022-09-14T15:08:42.698Z,2.50
2022-09-14T15:11:18.515Z,2.70
2022-09-14T15:13:45.975Z,2.88
2022-09-14T15:16:14.149Z,2.80
2022-09-14T15:18:41.195Z,3.00
2022-09-14T15:21:08.581Z,3.00
2022-09-14T15:23:38.042Z,2.95
2022-09-14T15:26:04.679Z,3.00
2022-09-14T15:28:31.164Z,3.13
2022-09-14T15:30:58.290Z,3.22
2022-09-14T15:33:24.985Z,2.78
2022-09-14T15:35:56.051Z,2.92
2022-09-14T15:38:22.845Z,2.90
2022-09-14T15:40:49.328Z,2.90
2022-09-14T15:43:16.185Z,2.50
2022-09-14T15:45:42.973Z,2.67
2022-09-14T15:48:14.692Z,2.60
2022-09-14T15:50:44.880Z,2.10
2022-09-14T15:53:13.102Z,2.63
2022-09-14T15:55:41.947Z,2.53
2022-09-14T15:58:08.893Z,2.42
2022-09-14T16:00:36.567Z,2.45
2022-09-14T16:03:03.975Z,2.50
2022-09-14T16:05:31.266Z,2.42
2022-09-14T16:07:58.019Z,2.30
2022-09-14T16:10:25.692Z,2.38
2022-09-14T16:12:54.085Z,2.40
2022-09-14T16:15:20.709Z,2.50
2022-09-14T16:17:52.567Z,2.40
2022-09-14T16:20:22.335Z,2.50
2022-09-14T16:22:49.785Z,2.50
2022-09-14T16:25:16.537Z,2.38
2022-09-14T16:27:43.092Z,2.30
2022-09-14T16:30:10.314Z,2.33
2022-09-14T16:32:38.615Z,2.10
2022-09-14T16:35:08.111Z,2.25
2022-09-14T16:37:35.270Z,2.30
2022-09-14T16:40:03.162Z,2.00
2022-09-14T16:42:29.668Z,2.17
2022-09-14T16:44:56.204Z,2.28
2022-09-14T16:47:23.046Z,2.22
2022-09-14T16:49:49.587Z,2.10
2022-09-14T16:52:16.339Z,2.30
2022-09-14T16:54:43.572Z,2.00
2022-09-14T16:57:10.154Z,1.90
2022-09-14T16:59:36.787Z,2.20
2022-09-14T17:02:03.349Z,2.13
2022-09-14T17:04:30.066Z,1.98
2022-09-14T17:06:56.880Z,2.08
2022-09-14T17:09:29.107Z,2.10
2022-09-14T17:11:57.551Z,1.90
2022-09-14T17:14:31.092Z,1.83
2022-09-14T17:16:58.196Z,2.30
2022-09-14T17:19:25.179Z,2.00
2022-09-14T17:21:51.824Z,1.90
2022-09-14T17:24:20.125Z,2.00
2022-09-14T17:26:47.356Z,1.98
2022-09-14T17:29:13.881Z,2.35
2022-09-14T17:31:42.190Z,2.13
2022-09-14T17:34:11.449Z,2.03
2022-09-14T17:36:38.409Z,2.03
2022-09-14T17:39:11.373Z,2.40
2022-09-14T17:41:40.085Z,2.22
2022-09-14T17:44:07.816Z,2.50
2022-09-14T17:46:35.363Z,2.42
2022-09-14T17:49:07.957Z,2.67
2022-09-14T17:51:36.358Z,2.28
2022-09-14T17:54:03.345Z,2.70
2022-09-14T17:56:30.273Z,2.22
2022-09-14T17:58:59.924Z,2.20
2022-09-14T18:01:26.464Z,2.40
2022-09-14T18:03:59.090Z,2.60
2022-09-14T18:06:29.148Z,2.20
2022-09-14T18:08:58.140Z,2.45
2022-09-14T18:11:24.877Z,2.20
2022-09-14T18:13:51.615Z,2.15
2022-09-14T18:16:21.189Z,2.17
2022-09-14T18:18:48.983Z,2.25
2022-09-14T18:21:18.463Z,2.00
2022-09-14T18:23:49.859Z,2.15
2022-09-14T18:26:16.894Z,1.90
2022-09-14T18:28:44.770Z,2.00
2022-09-14T18:31:16.810Z,1.70
2022-09-14T18:33:48.399Z,1.80
2022-09-14T18:36:15.247Z,2.13
2022-09-14T18:38:42.783Z,2.00
2022-09-14T18:41:10.785Z,2.20
2022-09-14T18:43:37.659Z,2.00
2022-09-14T18:46:07.867Z,2.20
2022-09-14T18:48:35.092Z,2.20
2022-09-14T18:51:05.095Z,2.10
2022-09-14T18:53:32.440Z,2.70
2022-09-14T18:56:03.159Z,2.65
2022-09-14T18:58:33.177Z,2.65
2022-09-14T19:00:59.782Z,2.90
2022-09-14T19:03:26.320Z,2.97
2022-09-14T19:05:52.889Z,2.63
2022-09-14T19:08:19.373Z,2.70
2022-09-14T19:10:45.838Z,2.90
2022-09-14T19:13:12.471Z,2.80
2022-09-14T19:15:40.921Z,2.80
2022-09-14T19:18:08.657Z,2.20
2022-09-14T19:21:04.866Z,2.95
2022-09-14T19:23:25.871Z,2.58
2022-09-14T19:25:52.335Z,2.80
2022-09-14T19:28:18.840Z,2.65
2022-09-14T19:30:45.450Z,2.67
2022-09-14T19:33:12.067Z,2.63
2022-09-14T19:35:38.529Z,2.80
2022-09-14T19:38:04.987Z,2.95
2022-09-14T19:40:31.572Z,2.80
2022-09-14T19:42:58.564Z,3.10
2022-09-14T19:45:25.055Z,2.83
2022-09-14T19:47:51.505Z,2.70
2022-09-14T19:50:17.993Z,2.80
2022-09-14T19:52:44.562Z,2.90
2022-09-14T19:55:11.040Z,3.08
2022-09-14T19:57:37.586Z,2.90
2022-09-14T20:00:08.179Z,3.10
2022-09-14T20:02:34.938Z,3.20
2022-09-14T20:05:01.616Z,3.03
2022-09-14T20:07:28.253Z,3.10
2022-09-14T20:09:54.988Z,3.30
2022-09-14T20:12:21.477Z,3.00
2022-09-14T20:14:47.962Z,3.20
2022-09-14T20:17:14.523Z,3.10
2022-09-14T20:19:42.114Z,3.28
2022-09-14T20:22:08.587Z,3.25
2022-09-14T20:24:35.839Z,3.00
2022-09-14T20:27:02.363Z,3.30
2022-09-14T20:29:31.509Z,3.45
2022-09-14T20:31:58.776Z,3.15
2022-09-14T20:34:25.631Z,3.65
2022-09-14T20:36:53.226Z,3.80
2022-09-14T20:39:21.033Z,3.95
2022-09-14T20:41:48.254Z,3.75
2022-09-14T20:44:15.822Z,3.72
2022-09-14T20:46:44.441Z,4.13
2022-09-14T20:49:13.209Z,3.85
2022-09-14T20:51:41.093Z,3.75
2022-09-14T20:54:09.750Z,3.50
2022-09-14T20:56:36.644Z,3.30
2022-09-14T20:59:06.071Z,3.72
2022-09-14T21:01:36.569Z,3.83
2022-09-14T21:04:15.506Z,3.50
2022-09-14T21:06:47.184Z,3.60
2022-09-14T21:09:15.590Z,3.55
2022-09-14T21:11:45.618Z,3.38
2022-09-14T21:14:14.095Z,3.47
2022-09-14T21:16:43.575Z,3.80
2022-09-14T21:19:12.920Z,3.58
2022-09-14T21:21:40.015Z,3.03
2022-09-14T21:24:08.893Z,3.50
2022-09-14T21:26:38.231Z,3.30
2022-09-14T21:29:09.091Z,3.20
2022-09-14T21:31:38.124Z,3.33
2022-09-14T21:34:06.591Z,3.15
2022-09-14T21:36:42.210Z,3.38
2022-09-14T21:39:12.597Z,3.35
2022-09-14T21:41:40.373Z,3.03
2022-09-14T21:44:08.057Z,2.88
2022-09-14T21:46:34.785Z,2.80
2022-09-14T21:49:01.349Z,3.35
2022-09-14T21:51:36.469Z,3.45
2022-09-14T21:54:09.124Z,3.38
2022-09-14T21:56:38.080Z,3.17
2022-09-14T21:59:07.885Z,3.40
2022-09-14T22:01:34.516Z,2.90
2022-09-14T22:04:02.222Z,3.03
2022-09-14T22:06:30.645Z,3.03
2022-09-14T22:09:01.084Z,3.45
2022-09-14T22:11:32.829Z,3.00
2022-09-14T22:14:05.030Z,3.25
2022-09-14T22:16:33.933Z,3.03
2022-09-14T22:19:04.074Z,3.20
2022-09-14T22:21:33.339Z,3.42
2022-09-14T22:24:02.287Z,3.22
2022-09-14T22:26:31.387Z,3.10
2022-09-14T22:28:58.933Z,3.80
2022-09-14T22:31:27.395Z,3.20
2022-09-14T22:33:55.347Z,3.65
2022-09-14T22:36:22.879Z,3.55
2022-09-14T22:38:49.851Z,3.78
2022-09-14T22:41:18.530Z,4.05
2022-09-14T22:43:45.793Z,3.97
2022-09-14T22:46:13.053Z,4.03
2022-09-14T22:48:40.238Z,4.20
2022-09-14T22:51:08.839Z,3.63
2022-09-14T22:53:35.429Z,3.40
2022-09-14T22:56:10.083Z,3.72
2022-09-14T22:58:37.136Z,3.20
2022-09-14T23:01:09.020Z,3.25
2022-09-14T23:03:35.837Z,2.80
2022-09-14T23:06:03.385Z,2.80
2022-09-14T23:08:30.393Z,2.70
2022-09-14T23:10:57.257Z,2.90
2022-09-14T23:13:23.917Z,2.65
2022-09-14T23:15:50.483Z,2.97
2022-09-14T23:18:17.067Z,2.95
2022-09-14T23:20:45.056Z,2.53
2022-09-14T23:23:12.304Z,2.80
2022-09-14T23:25:40.722Z,2.72
2022-09-14T23:28:10.154Z,2.50
2022-09-14T23:30:36.713Z,2.30
2022-09-14T23:33:03.286Z,2.80
2022-09-14T23:35:30.050Z,2.38
2022-09-14T23:37:56.918Z,2.67
2022-09-14T23:40:23.970Z,2.58
2022-09-14T23:42:50.614Z,2.40
2022-09-14T23:45:17.931Z,2.60
2022-09-14T23:47:46.002Z,2.35
2022-09-14T23:50:12.496Z,2.67
2022-09-14T23:52:39.187Z,2.47
2022-09-14T23:55:06.249Z,2.40
2022-09-14T23:57:32.717Z,2.40
2022-09-14T23:59:59.279Z,2.50
